Millersville, MD (21108)

3:37 PM EST on December 19, 2014 (GMT -0500)
MID-ATLANTIC TOWER | Change Station
CLOSE
Current Station
Personal Weather Station
Location: Millersville, MD
Elevation: 125 ft
Nearby Weather Stations

Elev 125 ft 39.10 °N, 76.62 °W | Updated 3 seconds ago

Mostly Cloudy
Mostly Cloudy
39.9 °F
Feels Like 40 °F
N
1.0
Wind Variable Wind from NNW
Gusts 10.0 mph

Today
High -- | Low -- °F
--% Chance of Precip.
Yesterday
High -- | Low -- °F
Precip. -- in
7:20 AM 4:46 PM
Waning Crescent, 6% visible
Pressure 30.13 in
Visibility 10.0 miles
Clouds Mostly Cloudy 3900 ft
Windchill 40 °F
Dew Point 22 °F
Humidity 49%
Rainfall 0.00 in
Snow Depth Not available.
UV 0.0 out of 12
Pollen .10 out of 12
Air Quality Not available.
Flu Activity Not available.
METAR KBWI 191954Z 34011G15KT 10SM BKN039 05/M05 A3012 RMK AO2 SLP201 T00501050

More Conditions Fewer Conditions

Pressure 30.13 in
Visibility 10.0 miles
Clouds Mostly Cloudy 3900 ft
Windchill 40 °F
Dew Point 22 °F
Humidity 49%
Rainfall 0.00 in
Snow Depth Not available.
UV 0.0 out of 12
Pollen .10 out of 12
Air Quality Not available.
Flu Activity Not available.
METAR KBWI 191954Z 34011G15KT 10SM BKN039 05/M05 A3012 RMK AO2 SLP201 T00501050

More Conditions Fewer Conditions

10-Day Weather Forecast

Almanac

Astronomy

Dec. 19, 2014 Rise Set
Actual Time
Civil Twilight
Nautical Twilight
Astronomical Twilight
Moon
Length of Visible Light
Length of Day
Tomorrow will be .
, % of the Moon is Illuminated

Today's Extremes

State Highs State Lows

Community

WunderPhotos

Upload Photos

1,779,048 photos uploaded!

WunderBlogs® & News

Nearby

Air Quality

  Air Quality AQ Index Pollutant
Not available.

Snow Depth

Station Depth Elevation

Earthquake Activity

City Distance Mag. Time & Date
Minimum magnitude displayed is 2.5.

Coastal Water Temperatures

Place Temperature

Nearby Weather Stations